Beallwood, Georgia
Current Conditions -  °F | °C
As of 1:51 PM on Thursday 30 Oct 2014 (Local Time) from KCSG Reporting Station
Clear Clear  
Wind Chill: 68°   Ceiling: Unl
Heat Index: 68°   Visibility: 10mi
Dew Point: 40°   Wind: 7mph
Humidity: 36%   Direction: 20°NNE
Pressure: 30.02"   Gusts: NA
Location:  32.5529°N, 84.9996°W
Report Text: KCSG 301751Z 02006KT 10SM CLR 20/04 A3002 RMK AO2 SLP163 T02000044 10206 20100 58021
Loading
Personal Weather Stations






























Interactive Weather Map
Tropical Storm Tracking
New forecast layout! Learn more

10-Day Weather Forecast

Advertisements
Track Severe Weather on mobile